Time;durP1;ratioP1;P1;durP2;ratioP2;P2;SDS_P1;SDS_P2;PMS_P1;PMS_P2;Temp;Humidity;BMP_temperature;BMP_pressure;BME280_temperature;BME280_humidity;BME280_pressure;Samples;Min_cycle;Max_cycle;Signal;HPM_P1;HPM_P2
2021/12/30 00:01:40;;;;;;;32.30;17.33;;;6.30;99.90;;;;;;5073728;28;20167;-74
2021/12/30 00:04:07;;;;;;;29.63;16.73;;;6.40;99.90;;;;;;5074000;28;20587;-74
2021/12/30 00:06:39;;;;;;;32.30;17.63;;;6.40;99.90;;;;;;5074044;28;20172;-74
2021/12/30 00:09:05;;;;;;;29.23;16.47;;;6.40;99.90;;;;;;5073497;28;20190;-74
2021/12/30 00:11:31;;;;;;;31.83;17.67;;;6.30;99.90;;;;;;5092247;28;20530;-74
2021/12/30 00:13:56;;;;;;;30.43;16.90;;;6.40;99.90;;;;;;5073485;28;20186;-74
2021/12/30 00:16:22;;;;;;;28.93;17.10;;;6.40;99.90;;;;;;5074427;28;20178;-77
2021/12/30 00:18:49;;;;;;;30.97;16.60;;;6.40;99.90;;;;;;5075199;28;20296;-74
2021/12/30 00:21:15;;;;;;;26.83;15.87;;;6.40;99.90;;;;;;5074035;28;20265;-74
2021/12/30 00:23:41;;;;;;;30.27;17.30;;;6.40;99.90;;;;;;5092023;28;20665;-74
2021/12/30 00:26:07;;;;;;;32.07;18.53;;;6.40;99.90;;;;;;5073873;28;20175;-75
2021/12/30 00:28:33;;;;;;;29.97;16.43;;;6.40;99.90;;;;;;5073288;28;20221;-75
2021/12/30 00:30:58;;;;;;;28.70;17.43;;;6.40;99.90;;;;;;5073884;28;20170;-74
2021/12/30 00:33:25;;;;;;;27.10;15.90;;;6.40;99.90;;;;;;5091997;28;20194;-74
2021/12/30 00:35:51;;;;;;;28.83;16.10;;;6.40;99.90;;;;;;5075452;28;20167;-74
2021/12/30 00:38:17;;;;;;;28.33;16.37;;;6.40;99.90;;;;;;5075483;28;20187;-74
2021/12/30 00:40:43;;;;;;;28.57;16.27;;;6.50;99.90;;;;;;5093649;28;20696;-74
2021/12/30 00:43:09;;;;;;;27.57;16.67;;;6.50;99.90;;;;;;5093713;28;20175;-74
2021/12/30 00:45:35;;;;;;;26.13;15.00;;;6.50;99.90;;;;;;5074852;28;20174;-74
2021/12/30 00:48:01;;;;;;;28.70;16.17;;;6.40;99.90;;;;;;5073866;28;20191;-74
2021/12/30 00:50:28;;;;;;;24.73;15.47;;;6.50;99.90;;;;;;5091607;28;20224;-74
2021/12/30 00:52:54;;;;;;;27.67;16.77;;;6.50;99.90;;;;;;5091535;28;20673;-74
2021/12/30 00:55:20;;;;;;;26.43;16.13;;;6.50;99.90;;;;;;5075714;28;20159;-74
2021/12/30 00:57:46;;;;;;;26.53;15.73;;;6.50;99.90;;;;;;5077463;28;20224;-74
2021/12/30 01:00:15;;;;;;;27.90;14.93;;;6.50;99.90;;;;;;5095144;28;20605;-74
2021/12/30 01:02:42;;;;;;;23.97;14.83;;;6.50;99.90;;;;;;5095059;28;20580;-74
2021/12/30 01:05:09;;;;;;;27.13;16.50;;;6.50;99.90;;;;;;5076968;28;20304;-74
2021/12/30 01:07:35;;;;;;;27.30;16.47;;;6.50;99.90;;;;;;5076581;28;20182;-74
2021/12/30 01:10:07;;;;;;;23.43;14.60;;;6.40;99.90;;;;;;5076245;28;20159;-74
2021/12/30 01:12:32;;;;;;;26.23;16.00;;;6.50;99.90;;;;;;5076617;28;20173;-74
2021/12/30 01:14:58;;;;;;;24.40;14.37;;;6.50;99.90;;;;;;5076213;28;20201;-74
2021/12/30 01:17:41;;;;;;;23.47;13.97;;;6.50;99.90;;;;;;5076711;28;20179;-75
2021/12/30 01:20:09;;;;;;;26.37;15.47;;;6.50;99.90;;;;;;5075993;28;20194;-74
2021/12/30 01:22:34;;;;;;;20.90;13.67;;;6.50;99.90;;;;;;5076712;28;20205;-74
2021/12/30 01:25:00;;;;;;;23.13;14.03;;;6.50;99.90;;;;;;5076294;28;20252;-74
2021/12/30 01:27:26;;;;;;;24.57;14.10;;;6.50;99.90;;;;;;5076111;28;20667;-74
2021/12/30 01:29:52;;;;;;;24.30;14.53;;;6.60;99.90;;;;;;5075918;28;20174;-74
2021/12/30 01:32:18;;;;;;;21.67;14.40;;;6.60;99.90;;;;;;5094413;28;20174;-74
2021/12/30 01:34:44;;;;;;;19.90;12.87;;;6.60;99.90;;;;;;5075805;28;20202;-74
2021/12/30 01:37:10;;;;;;;22.43;14.47;;;6.60;99.90;;;;;;5076421;28;20253;-75
2021/12/30 01:39:38;;;;;;;21.17;13.50;;;6.60;99.90;;;;;;5075822;28;20259;-75
2021/12/30 01:42:06;;;;;;;21.40;13.70;;;6.60;99.90;;;;;;5076223;28;20171;-75
2021/12/30 01:44:33;;;;;;;22.03;14.10;;;6.60;99.90;;;;;;5075668;28;20257;-74
2021/12/30 01:46:59;;;;;;;23.97;13.63;;;6.60;99.90;;;;;;5075892;28;20174;-74
2021/12/30 01:49:26;;;;;;;21.83;12.93;;;6.50;99.90;;;;;;5093601;28;20713;-74
2021/12/30 01:51:54;;;;;;;23.00;12.67;;;6.40;99.90;;;;;;5075968;28;20182;-73
2021/12/30 01:54:21;;;;;;;22.43;13.90;;;6.40;99.90;;;;;;5075675;28;20198;-74
2021/12/30 01:56:47;;;;;;;20.00;12.23;;;6.50;99.90;;;;;;5094124;28;20272;-74
2021/12/30 01:59:12;;;;;;;24.97;14.70;;;6.50;99.90;;;;;;5072825;28;20281;-76
2021/12/30 02:01:38;;;;;;;24.90;14.73;;;6.40;99.90;;;;;;5073014;28;20670;-74
2021/12/30 02:04:04;;;;;;;22.33;13.67;;;6.40;99.90;;;;;;5093266;28;20541;-73
2021/12/30 02:06:30;;;;;;;22.80;14.07;;;6.30;99.90;;;;;;5075041;28;20205;-74
2021/12/30 02:08:55;;;;;;;22.10;13.47;;;6.40;99.90;;;;;;5075003;28;20688;-74
2021/12/30 02:11:22;;;;;;;23.47;14.27;;;6.40;99.90;;;;;;5093720;28;20308;-73
2021/12/30 02:13:49;;;;;;;22.10;14.40;;;6.40;99.90;;;;;;5075181;28;20202;-75
2021/12/30 02:16:17;;;;;;;26.03;15.20;;;6.40;99.90;;;;;;5075139;28;20181;-74
2021/12/30 02:18:43;;;;;;;25.70;14.70;;;6.40;99.90;;;;;;5075063;28;20198;-74
2021/12/30 02:21:08;;;;;;;22.40;13.53;;;6.50;99.90;;;;;;5075462;28;20177;-73
2021/12/30 02:23:36;;;;;;;23.63;14.33;;;6.50;99.90;;;;;;5075546;28;20235;-74
2021/12/30 02:26:05;;;;;;;23.07;13.77;;;6.50;99.90;;;;;;5093172;28;20174;-74
2021/12/30 02:28:34;;;;;;;25.13;15.00;;;6.50;99.90;;;;;;5074625;28;20214;-74
2021/12/30 02:31:02;;;;;;;22.43;15.00;;;6.60;99.90;;;;;;5074689;28;20188;-74
2021/12/30 02:33:28;;;;;;;21.10;13.50;;;6.60;99.90;;;;;;5075270;28;20264;-74
2021/12/30 02:35:55;;;;;;;24.37;15.40;;;6.60;99.90;;;;;;5074887;28;20638;-74
2021/12/30 02:38:22;;;;;;;22.10;13.90;;;6.60;99.90;;;;;;5092906;28;20565;-74
2021/12/30 02:40:53;;;;;;;26.03;14.77;;;6.60;99.90;;;;;;5074808;28;20575;-74
2021/12/30 02:43:24;;;;;;;22.87;14.50;;;6.60;99.90;;;;;;5093064;28;20181;-74
2021/12/30 02:45:50;;;;;;;24.57;14.20;;;6.70;99.90;;;;;;5074748;28;20213;-75
2021/12/30 02:48:19;;;;;;;26.57;15.27;;;6.70;99.90;;;;;;5092538;28;20228;-74
2021/12/30 02:50:46;;;;;;;23.80;15.20;;;6.70;99.90;;;;;;5093157;28;20598;-75
2021/12/30 02:53:13;;;;;;;22.07;14.63;;;6.70;99.90;;;;;;5080562;28;20221;-75
2021/12/30 02:55:39;;;;;;;25.27;15.30;;;6.70;99.90;;;;;;5083031;28;20265;-76
2021/12/30 02:58:05;;;;;;;23.97;14.67;;;6.80;99.90;;;;;;5081530;28;20293;-75
2021/12/30 03:00:32;;;;;;;25.30;15.43;;;6.80;99.90;;;;;;5075583;28;20205;-74
2021/12/30 03:02:57;;;;;;;26.43;14.20;;;6.70;99.90;;;;;;5075238;28;20216;-75
2021/12/30 03:05:24;;;;;;;22.63;14.90;;;6.80;99.90;;;;;;5074445;28;20175;-77
2021/12/30 03:07:51;;;;;;;21.57;13.60;;;6.80;99.90;;;;;;5074137;28;20198;-75
2021/12/30 03:10:21;;;;;;;22.30;12.93;;;6.80;99.90;;;;;;5074392;28;20261;-75
2021/12/30 03:12:53;;;;;;;20.17;13.53;;;6.80;99.90;;;;;;5074269;28;20166;-75
2021/12/30 03:15:19;;;;;;;21.53;13.93;;;6.80;99.90;;;;;;5072655;28;20178;-74
2021/12/30 03:17:45;;;;;;;22.90;14.33;;;6.90;99.90;;;;;;5073082;28;20194;-74
2021/12/30 03:20:11;;;;;;;24.20;13.93;;;6.90;99.90;;;;;;5074108;28;20169;-74
2021/12/30 03:22:38;;;;;;;21.37;13.67;;;6.90;99.90;;;;;;5074114;28;20654;-74
2021/12/30 03:25:10;;;;;;;19.27;13.07;;;6.90;99.90;;;;;;5092151;28;20671;-74
2021/12/30 03:27:36;;;;;;;23.07;14.20;;;6.90;99.90;;;;;;5073906;28;20263;-74
2021/12/30 03:30:07;;;;;;;19.50;12.20;;;7.00;99.90;;;;;;5092231;28;20166;-74
2021/12/30 03:32:33;;;;;;;17.70;12.53;;;7.00;99.90;;;;;;5074062;28;20183;-77
2021/12/30 03:34:58;;;;;;;17.20;11.03;;;7.00;99.90;;;;;;5073698;28;20630;-74
2021/12/30 03:37:24;;;;;;;19.37;11.57;;;7.10;99.90;;;;;;5091962;28;20196;-75
2021/12/30 03:39:50;;;;;;;18.10;11.00;;;7.10;99.90;;;;;;5073347;28;20170;-75
2021/12/30 03:42:16;;;;;;;15.70;10.40;;;7.10;99.90;;;;;;5073833;28;20174;-75
2021/12/30 03:44:42;;;;;;;15.53;11.17;;;7.10;99.90;;;;;;5091816;28;20170;-76
2021/12/30 03:47:12;;;;;;;14.13;10.37;;;7.20;99.90;;;;;;5073841;28;20166;-75
2021/12/30 03:49:38;;;;;;;14.97;10.30;;;7.20;99.90;;;;;;5073388;28;20177;-75
2021/12/30 03:52:04;;;;;;;15.07;10.10;;;7.20;99.90;;;;;;5073911;28;20174;-75
2021/12/30 03:54:30;;;;;;;14.63;10.13;;;7.30;99.90;;;;;;5091707;28;20670;-77
2021/12/30 03:56:56;;;;;;;14.60;9.40;;;7.30;99.90;;;;;;5091790;28;20163;-75
2021/12/30 03:59:21;;;;;;;13.40;9.50;;;7.30;99.90;;;;;;5091197;28;20186;-75
2021/12/30 04:01:47;;;;;;;15.47;9.77;;;7.30;99.90;;;;;;5091914;28;20170;-75
2021/12/30 04:04:12;;;;;;;15.03;10.23;;;7.30;99.90;;;;;;5091704;28;20173;-75
2021/12/30 04:06:38;;;;;;;15.37;9.87;;;7.30;99.90;;;;;;5073871;28;20219;-75
2021/12/30 04:09:06;;;;;;;18.27;10.43;;;7.40;99.90;;;;;;5072966;28;20386;-75
2021/12/30 04:11:34;;;;;;;16.47;10.50;;;7.40;99.90;;;;;;5091515;28;20602;-76
2021/12/30 04:14:01;;;;;;;17.07;10.60;;;7.40;99.90;;;;;;5073225;28;20437;-75
2021/12/30 04:16:27;;;;;;;20.50;11.13;;;7.50;99.90;;;;;;5073618;28;20173;-75
2021/12/30 04:18:52;;;;;;;19.67;11.80;;;7.50;99.90;;;;;;5073023;28;20546;-75
2021/12/30 04:21:20;;;;;;;22.27;12.33;;;7.50;99.90;;;;;;5073282;28;20166;-75
2021/12/30 04:23:46;;;;;;;26.57;13.07;;;7.60;99.90;;;;;;5073441;28;20257;-75
2021/12/30 04:26:12;;;;;;;31.77;13.90;;;7.60;99.90;;;;;;5073240;28;20258;-75
2021/12/30 04:28:38;;;;;;;30.27;14.40;;;7.60;99.90;;;;;;5114785;22;20287;-71
2021/12/30 04:31:04;;;;;;;31.73;15.67;;;7.60;99.90;;;;;;5077347;28;20167;-71
2021/12/30 04:33:30;;;;;;;29.93;14.90;;;7.70;99.90;;;;;;5076433;28;20220;-71
2021/12/30 04:35:56;;;;;;;30.67;15.23;;;7.70;99.90;;;;;;5095447;28;20551;-72
2021/12/30 04:38:26;;;;;;;29.97;15.20;;;7.70;99.90;;;;;;5076826;28;20226;-72
2021/12/30 04:40:53;;;;;;;34.17;15.93;;;7.70;99.90;;;;;;5076938;28;20198;-72
2021/12/30 04:43:18;;;;;;;35.07;15.90;;;7.80;99.90;;;;;;5095337;28;20265;-71
2021/12/30 04:45:46;;;;;;;31.93;16.10;;;7.70;99.90;;;;;;5076721;28;20312;-72
2021/12/30 04:48:12;;;;;;;34.13;16.10;;;7.70;99.90;;;;;;5076581;28;20178;-72
2021/12/30 04:50:38;;;;;;;32.03;16.53;;;7.80;99.90;;;;;;5076820;28;20226;-71
2021/12/30 04:53:03;;;;;;;39.23;17.87;;;7.80;99.90;;;;;;5076796;28;20536;-73
2021/12/30 04:55:29;;;;;;;32.90;16.07;;;7.80;99.90;;;;;;5094956;28;20566;-73
2021/12/30 04:57:55;;;;;;;39.17;18.40;;;7.80;99.90;;;;;;5095129;28;20172;-72
2021/12/30 05:00:21;;;;;;;38.20;18.00;;;7.80;99.90;;;;;;5076412;28;20218;-73
2021/12/30 05:05:31;;;;;;;41.10;19.17;;;7.80;99.90;;;;;;5095091;28;20173;-72
2021/12/30 05:07:57;;;;;;;36.27;18.57;;;7.80;99.90;;;;;;5075723;28;20171;-72
2021/12/30 05:10:22;;;;;;;43.20;18.37;;;7.90;99.90;;;;;;5076290;28;20194;-72
2021/12/30 05:12:48;;;;;;;40.00;19.30;;;7.90;99.90;;;;;;5076475;28;20174;-72
2021/12/30 05:15:15;;;;;;;46.07;19.63;;;7.90;99.90;;;;;;5076129;28;20255;-72
2021/12/30 05:17:41;;;;;;;47.77;20.17;;;7.90;99.90;;;;;;5076683;28;20183;-72
2021/12/30 05:20:08;;;;;;;40.77;19.87;;;8.00;99.90;;;;;;5075870;28;20186;-72
2021/12/30 05:22:34;;;;;;;37.10;18.17;;;8.00;99.90;;;;;;5094518;28;20237;-71
2021/12/30 05:25:00;;;;;;;38.93;19.27;;;8.00;99.90;;;;;;5076125;28;20269;-72
2021/12/30 05:27:25;;;;;;;45.67;19.33;;;8.00;99.90;;;;;;5076371;28;20193;-72
2021/12/30 05:29:51;;;;;;;37.57;18.03;;;8.00;99.90;;;;;;5075494;28;20669;-71
2021/12/30 05:32:16;;;;;;;45.47;20.20;;;8.10;99.90;;;;;;5094116;28;20178;-72
2021/12/30 05:34:42;;;;;;;37.43;19.27;;;8.10;99.90;;;;;;5075962;28;20229;-72
2021/12/30 05:37:07;;;;;;;41.60;18.77;;;8.10;99.90;;;;;;5076109;28;20178;-72
2021/12/30 05:39:37;;;;;;;37.80;18.57;;;8.10;99.90;;;;;;5093037;28;20195;-73
2021/12/30 05:42:03;;;;;;;46.87;20.60;;;8.10;99.90;;;;;;5094030;28;20170;-72
2021/12/30 05:44:28;;;;;;;47.20;20.63;;;8.10;99.90;;;;;;5098731;28;20655;-73
2021/12/30 05:46:54;;;;;;;42.37;19.03;;;8.10;99.90;;;;;;5076953;28;20214;-72
2021/12/30 05:49:19;;;;;;;40.50;19.80;;;8.20;99.90;;;;;;5075387;28;20560;-73
2021/12/30 05:51:45;;;;;;;41.90;19.70;;;8.20;99.90;;;;;;5075808;28;20186;-72
2021/12/30 05:54:10;;;;;;;45.63;20.07;;;8.20;99.90;;;;;;5075407;28;20207;-73
2021/12/30 05:56:36;;;;;;;41.43;19.93;;;8.20;99.90;;;;;;5093909;28;20182;-74
2021/12/30 05:59:02;;;;;;;39.90;18.80;;;8.20;99.90;;;;;;5093344;28;20197;-74
2021/12/30 06:01:27;;;;;;;40.17;18.97;;;8.20;99.90;;;;;;5075634;28;20257;-73
2021/12/30 06:03:52;;;;;;;45.27;18.17;;;8.20;99.90;;;;;;5093603;28;20575;-73
2021/12/30 06:06:18;;;;;;;35.40;17.87;;;8.20;99.90;;;;;;5075347;28;20174;-72
2021/12/30 06:08:43;;;;;;;37.27;18.30;;;8.30;99.90;;;;;;5075108;28;20190;-72
2021/12/30 06:11:09;;;;;;;43.20;18.70;;;8.30;99.90;;;;;;5075287;28;20609;-73
2021/12/30 06:13:35;;;;;;;40.73;19.63;;;8.30;99.90;;;;;;5093871;28;20653;-72
2021/12/30 06:16:00;;;;;;;37.93;19.37;;;8.30;99.90;;;;;;5093382;28;20249;-72
2021/12/30 06:18:25;;;;;;;38.03;19.33;;;8.30;99.90;;;;;;5074860;28;20198;-73
2021/12/30 06:20:51;;;;;;;38.27;18.20;;;8.30;99.90;;;;;;5075094;28;20390;-71
2021/12/30 06:23:17;;;;;;;45.07;18.70;;;8.30;99.90;;;;;;5075067;28;20171;-71
2021/12/30 06:25:43;;;;;;;38.97;17.47;;;8.40;99.90;;;;;;5075079;28;20189;-71
2021/12/30 06:28:10;;;;;;;40.07;18.47;;;8.40;99.90;;;;;;5074643;28;20609;-72
2021/12/30 06:30:35;;;;;;;33.43;16.97;;;8.30;99.90;;;;;;5074897;28;20214;-72
2021/12/30 06:33:01;;;;;;;36.10;18.47;;;8.30;99.90;;;;;;5074881;28;20209;-72
2021/12/30 06:35:31;;;;;;;33.37;17.07;;;8.30;99.90;;;;;;5074712;28;20623;-73
2021/12/30 06:37:58;;;;;;;36.63;16.73;;;8.20;99.90;;;;;;5074636;28;20457;-72
2021/12/30 06:40:23;;;;;;;33.00;16.73;;;8.20;99.90;;;;;;5092845;28;20685;-72
2021/12/30 06:42:49;;;;;;;34.40;16.20;;;8.10;99.90;;;;;;5074612;28;20210;-72
2021/12/30 06:45:14;;;;;;;30.97;16.77;;;8.00;99.90;;;;;;5074696;28;20360;-72
2021/12/30 06:47:41;;;;;;;34.23;15.97;;;8.00;99.90;;;;;;5074557;28;20192;-72
2021/12/30 06:50:08;;;;;;;32.40;16.67;;;8.00;99.90;;;;;;5092384;28;20182;-72
2021/12/30 06:52:33;;;;;;;35.57;17.30;;;8.00;99.90;;;;;;5074619;28;20181;-72
2021/12/30 06:54:59;;;;;;;32.20;16.97;;;8.00;99.90;;;;;;5074175;28;20198;-72
2021/12/30 06:57:25;;;;;;;33.13;15.73;;;8.00;99.90;;;;;;5074602;28;20171;-73
2021/12/30 06:59:50;;;;;;;41.33;17.80;;;8.00;99.90;;;;;;5073841;28;20199;-73
2021/12/30 07:02:16;;;;;;;36.80;17.93;;;7.90;99.90;;;;;;5074422;28;20247;-73
2021/12/30 07:04:42;;;;;;;34.63;16.17;;;7.90;99.90;;;;;;5092452;28;20181;-73
2021/12/30 07:07:08;;;;;;;37.37;16.47;;;7.90;99.90;;;;;;5074188;28;20170;-73
2021/12/30 07:09:34;;;;;;;35.63;16.17;;;7.90;99.90;;;;;;5073657;28;20552;-72
2021/12/30 07:11:59;;;;;;;39.53;16.43;;;7.90;99.90;;;;;;5092405;28;20177;-72
2021/12/30 07:14:25;;;;;;;35.30;15.87;;;7.90;99.90;;;;;;5073943;28;20198;-73
2021/12/30 07:16:51;;;;;;;31.20;15.23;;;7.90;99.90;;;;;;5092186;28;20171;-72
2021/12/30 07:19:18;;;;;;;34.30;17.10;;;7.90;99.90;;;;;;5073411;28;20192;-72
2021/12/30 07:21:44;;;;;;;32.57;16.80;;;7.90;99.90;;;;;;5074007;28;20177;-72
2021/12/30 07:24:10;;;;;;;37.13;16.67;;;8.00;99.90;;;;;;5074019;28;20681;-72
2021/12/30 07:26:36;;;;;;;33.80;16.37;;;8.00;99.90;;;;;;5074090;28;20183;-74
2021/12/30 07:29:04;;;;;;;40.73;17.10;;;8.10;99.90;;;;;;5091819;28;20220;-73
2021/12/30 07:31:30;;;;;;;34.23;15.70;;;8.10;99.90;;;;;;5074498;28;20166;-72
2021/12/30 07:33:55;;;;;;;29.40;15.13;;;8.20;99.90;;;;;;5074136;28;20239;-72
2021/12/30 07:36:21;;;;;;;32.13;16.00;;;8.20;99.90;;;;;;5074205;28;20165;-73
2021/12/30 07:38:48;;;;;;;31.97;15.10;;;8.20;99.90;;;;;;5074207;28;20187;-72
2021/12/30 07:41:14;;;;;;;32.47;14.63;;;8.20;99.90;;;;;;5092291;28;20643;-73
2021/12/30 07:43:40;;;;;;;30.70;14.73;;;8.20;99.90;;;;;;5092107;28;20178;-72
2021/12/30 07:46:07;;;;;;;28.17;14.63;;;8.20;99.90;;;;;;5073795;28;20170;-71
2021/12/30 07:48:33;;;;;;;34.93;15.23;;;8.20;99.90;;;;;;5073638;28;20194;-70
2021/12/30 07:50:59;;;;;;;30.07;14.47;;;8.30;99.90;;;;;;5073430;28;20190;-72
2021/12/30 07:53:24;;;;;;;39.63;14.87;;;8.30;99.90;;;;;;5091670;28;20190;-74
2021/12/30 07:55:50;;;;;;;35.20;14.50;;;8.30;99.90;;;;;;5091620;28;20167;-71
2021/12/30 07:58:16;;;;;;;29.13;14.57;;;8.30;99.90;;;;;;5091429;28;20173;-72
2021/12/30 08:00:41;;;;;;;31.40;14.40;;;8.30;99.90;;;;;;5073593;28;20177;-72
2021/12/30 08:03:07;;;;;;;36.00;14.40;;;8.30;99.90;;;;;;5073302;28;20239;-72
2021/12/30 08:05:33;;;;;;;31.93;14.33;;;8.40;99.90;;;;;;5091329;28;20264;-72
2021/12/30 08:07:59;;;;;;;29.63;13.83;;;8.40;99.90;;;;;;5073606;28;20662;-72
2021/12/30 08:10:24;;;;;;;34.10;15.17;;;8.40;99.90;;;;;;5091340;28;20237;-71
2021/12/30 08:12:52;;;;;;;31.97;14.07;;;8.50;99.90;;;;;;5073444;28;20166;-72
2021/12/30 08:15:18;;;;;;;34.07;12.97;;;8.50;99.90;;;;;;5091170;28;20666;-72
2021/12/30 08:17:45;;;;;;;29.73;13.03;;;8.50;99.90;;;;;;5091611;28;20170;-71
2021/12/30 08:20:13;;;;;;;33.03;14.57;;;8.60;99.90;;;;;;5073767;28;20269;-72
2021/12/30 08:22:39;;;;;;;34.07;12.60;;;8.60;99.90;;;;;;5091475;28;20287;-72
2021/12/30 08:25:07;;;;;;;36.30;14.40;;;8.70;99.90;;;;;;5073182;28;20182;-72
2021/12/30 08:27:32;;;;;;;30.73;13.40;;;8.70;99.90;;;;;;5073756;28;20178;-72
2021/12/30 08:29:58;;;;;;;35.10;14.27;;;8.70;99.90;;;;;;5072660;28;20256;-72
2021/12/30 08:32:23;;;;;;;28.43;13.80;;;8.70;99.90;;;;;;5073204;28;20647;-71
2021/12/30 08:34:49;;;;;;;31.73;14.67;;;8.80;99.90;;;;;;5073018;28;20655;-72
2021/12/30 08:37:16;;;;;;;33.23;13.97;;;8.80;99.90;;;;;;5073299;28;20508;-72
2021/12/30 08:39:43;;;;;;;34.63;14.67;;;8.80;99.90;;;;;;5090806;28;20174;-72
2021/12/30 08:42:24;;;;;;;38.57;15.20;;;8.80;99.90;;;;;;5073300;28;20188;-73
2021/12/30 08:44:52;;;;;;;33.43;13.70;;;8.90;99.90;;;;;;5073257;28;20531;-71
2021/12/30 08:47:18;;;;;;;32.30;14.50;;;8.90;99.90;;;;;;5092434;28;20592;-72
2021/12/30 08:49:47;;;;;;;29.40;13.67;;;8.90;99.90;;;;;;5077249;28;20198;-72
2021/12/30 08:52:19;;;;;;;39.37;14.07;;;8.90;99.90;;;;;;5093453;28;20205;-72
2021/12/30 08:54:47;;;;;;;28.97;12.40;;;9.00;99.90;;;;;;5090982;28;20726;-72
2021/12/30 08:57:13;;;;;;;27.53;13.23;;;9.00;99.90;;;;;;5091221;28;20162;-72
2021/12/30 08:59:38;;;;;;;27.33;13.57;;;9.00;99.90;;;;;;5090555;28;20231;-72
2021/12/30 09:02:05;;;;;;;27.47;12.93;;;9.00;99.90;;;;;;5072803;28;20256;-73
2021/12/30 09:04:31;;;;;;;33.97;13.00;;;9.00;99.90;;;;;;5091000;28;20623;-72
2021/12/30 09:06:57;;;;;;;30.17;14.10;;;9.00;99.90;;;;;;5072882;28;20245;-72
2021/12/30 09:09:23;;;;;;;29.33;12.87;;;9.00;99.90;;;;;;5072401;28;20688;-72
2021/12/30 09:11:48;;;;;;;25.57;12.80;;;9.10;99.90;;;;;;5072852;28;20303;-72
2021/12/30 09:14:14;;;;;;;27.60;12.87;;;9.10;99.90;;;;;;5090846;28;20202;-72
2021/12/30 09:16:40;;;;;;;31.90;13.80;;;9.10;99.90;;;;;;5093641;28;20173;-72
2021/12/30 09:19:06;;;;;;;30.80;13.37;;;9.10;99.90;;;;;;5076025;28;20182;-72
2021/12/30 09:21:32;;;;;;;28.03;12.47;;;9.20;99.90;;;;;;5094499;28;20231;-72
2021/12/30 09:23:57;;;;;;;29.10;12.17;;;9.20;99.90;;;;;;5094454;28;20174;-72
2021/12/30 09:26:23;;;;;;;25.97;13.10;;;9.30;99.90;;;;;;5075976;28;20175;-72
2021/12/30 09:28:49;;;;;;;35.10;13.00;;;9.30;99.90;;;;;;5075718;28;20210;-72
2021/12/30 09:31:15;;;;;;;29.13;11.73;;;9.40;99.90;;;;;;5075851;28;20166;-72
2021/12/30 09:33:41;;;;;;;23.93;12.60;;;9.40;99.90;;;;;;5075531;28;20194;-72
2021/12/30 09:36:07;;;;;;;28.07;13.20;;;9.40;99.90;;;;;;5075984;28;20456;-72
2021/12/30 09:38:32;;;;;;;24.73;11.20;;;9.40;99.90;;;;;;5075414;28;20653;-72
2021/12/30 09:40:58;;;;;;;27.60;11.77;;;9.50;99.90;;;;;;5094046;28;20190;-73
2021/12/30 09:43:24;;;;;;;26.77;13.50;;;9.50;99.90;;;;;;5076174;28;20428;-72
2021/12/30 09:45:50;;;;;;;25.63;11.83;;;9.50;99.90;;;;;;5075863;28;20170;-72
2021/12/30 09:48:16;;;;;;;29.90;11.83;;;9.50;99.90;;;;;;5075135;28;20174;-73
2021/12/30 09:50:48;;;;;;;28.53;12.70;;;9.40;99.90;;;;;;5075790;28;20295;-72
2021/12/30 09:53:17;;;;;;;30.17;12.60;;;9.40;99.90;;;;;;5076059;28;20185;-73
2021/12/30 09:55:42;;;;;;;26.17;12.30;;;9.40;99.90;;;;;;5075342;28;20170;-73
2021/12/30 09:58:08;;;;;;;32.90;13.07;;;9.40;99.90;;;;;;5075224;28;20166;-72
2021/12/30 10:00:34;;;;;;;23.27;11.03;;;9.40;99.90;;;;;;5093774;28;20285;-73
2021/12/30 10:03:00;;;;;;;27.67;12.40;;;9.40;99.90;;;;;;5075427;28;20174;-73
2021/12/30 10:05:29;;;;;;;23.40;11.83;;;9.40;99.90;;;;;;5075317;28;20182;-73
2021/12/30 10:08:32;;;;;;;26.83;12.23;;;9.40;99.90;;;;;;5075500;28;20265;-73
2021/12/30 10:11:02;;;;;;;27.33;11.90;;;9.50;99.90;;;;;;5014501;28;20172;-72
2021/12/30 10:13:31;;;;;;;34.03;11.60;;;9.50;99.90;;;;;;5065176;28;20206;-72
2021/12/30 10:16:10;;;;;;;28.00;11.97;;;9.50;99.90;;;;;;5075318;28;20224;-74
2021/12/30 10:18:51;;;;;;;23.13;11.70;;;9.50;99.90;;;;;;5074690;28;20193;-73
2021/12/30 10:21:31;;;;;;;26.20;11.73;;;9.40;99.90;;;;;;5074878;28;20463;-73
2021/12/30 10:23:59;;;;;;;24.43;11.93;;;9.40;99.90;;;;;;5075200;28;20166;-73
2021/12/30 10:26:26;;;;;;;21.67;11.53;;;9.40;99.90;;;;;;5092637;28;20182;-73
2021/12/30 10:28:58;;;;;;;27.87;12.83;;;9.40;99.90;;;;;;5089387;22;20218;-75
2021/12/30 10:31:27;;;;;;;29.67;11.90;;;9.40;99.90;;;;;;5075515;28;20579;-74
2021/12/30 10:33:52;;;;;;;27.73;11.37;;;9.40;99.90;;;;;;5075305;28;20731;-74
2021/12/30 10:36:24;;;;;;;22.70;11.03;;;9.40;99.90;;;;;;5075063;28;20171;-75
2021/12/30 10:38:51;;;;;;;21.20;12.60;;;9.40;99.90;;;;;;5074991;28;20304;-74
2021/12/30 10:41:20;;;;;;;23.23;11.80;;;9.40;99.90;;;;;;5093419;28;20569;-74
2021/12/30 10:43:53;;;;;;;28.57;11.93;;;9.40;99.90;;;;;;5074977;28;20173;-74
2021/12/30 10:46:20;;;;;;;20.00;10.57;;;9.50;99.90;;;;;;5093006;28;20631;-75
2021/12/30 10:49:05;;;;;;;24.20;11.10;;;9.50;99.90;;;;;;5092574;28;20186;-74
2021/12/30 10:51:32;;;;;;;25.33;11.00;;;9.50;99.90;;;;;;5074550;28;20170;-76
2021/12/30 10:53:59;;;;;;;18.37;10.00;;;9.60;99.90;;;;;;5075445;28;20555;-74
2021/12/30 10:56:34;;;;;;;23.93;11.80;;;9.60;99.90;;;;;;5074405;28;20194;-76
2021/12/30 10:59:07;;;;;;;21.90;10.87;;;9.60;99.90;;;;;;5074143;28;20190;-74
2021/12/30 11:01:44;;;;;;;25.77;11.00;;;9.60;99.90;;;;;;5074793;28;20212;-74
2021/12/30 11:04:11;;;;;;;30.67;12.10;;;9.60;99.90;;;;;;5074388;28;20174;-74
2021/12/30 11:06:37;;;;;;;28.23;11.50;;;9.70;99.90;;;;;;5074270;28;20178;-74
2021/12/30 11:09:08;;;;;;;26.80;11.57;;;9.60;99.90;;;;;;5074466;28;20197;-75
2021/12/30 11:11:34;;;;;;;19.30;10.03;;;9.60;99.90;;;;;;5074692;28;20180;-74
2021/12/30 11:14:09;;;;;;;24.00;11.27;;;9.70;99.90;;;;;;5091145;28;20286;-74
2021/12/30 11:16:57;;;;;;;22.73;10.67;;;9.70;99.90;;;;;;5074034;28;20166;-74
2021/12/30 11:19:23;;;;;;;28.53;10.30;;;9.70;99.90;;;;;;5096071;28;20208;-75
2021/12/30 11:21:51;;;;;;;20.73;10.37;;;9.70;99.90;;;;;;5104311;28;20173;-78
2021/12/30 11:24:17;;;;;;;20.57;9.87;;;9.70;99.90;;;;;;5083889;28;20182;-75
2021/12/30 11:26:43;;;;;;;22.00;9.90;;;9.70;99.90;;;;;;5093986;28;20665;-75
2021/12/30 11:29:09;;;;;;;23.70;9.80;;;9.80;99.90;;;;;;5092856;28;20217;-75
2021/12/30 11:31:35;;;;;;;16.57;9.83;;;9.70;99.90;;;;;;5074742;28;20179;-74
2021/12/30 11:34:02;;;;;;;22.77;9.87;;;9.80;99.90;;;;;;5093202;28;20210;-74
2021/12/30 11:36:30;;;;;;;22.27;9.80;;;9.80;99.90;;;;;;5074207;28;20178;-74
2021/12/30 11:38:58;;;;;;;21.37;9.97;;;9.80;99.90;;;;;;5073378;28;20239;-74
2021/12/30 11:41:27;;;;;;;17.37;9.27;;;9.80;99.90;;;;;;5092733;28;20178;-75
2021/12/30 11:43:54;;;;;;;25.87;9.97;;;9.80;99.90;;;;;;5075212;28;20174;-74
2021/12/30 11:46:39;;;;;;;20.67;9.27;;;9.90;99.90;;;;;;5074187;28;20174;-74
2021/12/30 11:49:06;;;;;;;16.97;10.20;;;9.90;99.90;;;;;;5073769;28;20242;-76
2021/12/30 11:51:45;;;;;;;19.13;9.90;;;10.00;99.90;;;;;;5075248;28;20203;-74
2021/12/30 11:54:37;;;;;;;21.00;9.20;;;10.00;99.90;;;;;;5073942;28;20201;-75
2021/12/30 11:57:42;;;;;;;21.83;9.50;;;10.00;99.90;;;;;;5073922;28;20174;-76
2021/12/30 12:00:35;;;;;;;22.43;9.53;;;9.90;99.90;;;;;;5091028;28;20550;-75
2021/12/30 12:03:21;;;;;;;19.40;10.93;;;9.90;99.90;;;;;;5073931;28;20206;-76
2021/12/30 12:05:47;;;;;;;21.77;10.53;;;9.80;99.90;;;;;;5073208;28;20265;-73
2021/12/30 12:08:14;;;;;;;23.73;11.17;;;9.90;99.90;;;;;;5073629;28;20262;-75
2021/12/30 12:10:41;;;;;;;28.83;10.27;;;9.90;99.90;;;;;;5073483;28;20167;-73
2021/12/30 12:13:31;;;;;;;27.60;11.70;;;9.90;99.90;;;;;;5091044;28;20619;-73
2021/12/30 12:15:58;;;;;;;24.87;11.20;;;9.90;99.90;;;;;;5073640;28;20178;-73
2021/12/30 12:18:24;;;;;;;21.50;11.43;;;9.90;99.90;;;;;;5073289;28;20232;-73
2021/12/30 12:20:52;;;;;;;26.83;11.03;;;9.90;99.90;;;;;;5073485;28;20182;-73
2021/12/30 12:23:45;;;;;;;20.50;11.13;;;9.80;99.90;;;;;;5073271;28;20231;-73
2021/12/30 12:26:10;;;;;;;21.90;11.40;;;9.80;99.90;;;;;;5073600;28;20216;-73
2021/12/30 12:28:37;;;;;;;27.67;12.70;;;9.90;99.90;;;;;;5091428;28;20186;-73
2021/12/30 12:31:06;;;;;;;22.80;12.10;;;9.90;99.90;;;;;;5073208;28;20212;-73
2021/12/30 12:33:33;;;;;;;23.53;12.23;;;10.00;99.90;;;;;;5073393;28;20202;-73
2021/12/30 12:36:00;;;;;;;21.80;10.77;;;10.00;99.90;;;;;;5091451;28;20166;-73
2021/12/30 12:38:46;;;;;;;20.67;10.93;;;10.00;99.90;;;;;;5072793;28;20174;-75
2021/12/30 12:41:27;;;;;;;18.17;11.00;;;9.90;99.90;;;;;;5072948;28;20417;-73
2021/12/30 12:44:19;;;;;;;21.43;11.17;;;9.90;99.90;;;;;;5073166;28;20198;-74